Time;durP1;ratioP1;P1;durP2;ratioP2;P2;SDS_P1;SDS_P2;PMS_P1;PMS_P2;Temp;Humidity;BMP_temperature;BMP_pressure;BME280_temperature;BME280_humidity;BME280_pressure;Samples;Min_cycle;Max_cycle;Signal;HPM_P1;HPM_P2
2022/04/05 00:00:37;;;;;;;;;;;;;;;;;;5064044;28;19915;-70
2022/04/05 00:03:03;;;;;;;;;;;;;;;;;;5066882;28;19948;-69
2022/04/05 00:05:29;;;;;;;;;;;;;;;;;;5071905;28;20336;-69
2022/04/05 00:07:54;;;;;;;;;;;;;;;;;;5066889;28;19911;-70
2022/04/05 00:10:21;;;;;;;;;;;;;;;;;;5075107;28;19912;-69
2022/04/05 00:12:47;;;;;;;;;;;;;;;;;;5060210;28;19905;-68
2022/04/05 00:15:13;;;;;;;;;;;;;;;;;;5068828;28;19931;-70
2022/04/05 00:17:39;;;;;;;;;;;;;;;;;;5056851;28;20483;-67
2022/04/05 00:20:05;;;;;;;;;;;;;;;;;;5065449;28;19916;-68
2022/04/05 00:22:31;;;;;;;;;;;;;;;;;;5075883;28;19923;-67
2022/04/05 00:24:56;;;;;;;;;;;;;;;;;;5067722;28;20324;-68
2022/04/05 00:27:22;;;;;;;;;;;;;;;;;;5052941;28;19999;-66
2022/04/05 00:29:48;;;;;;;;;;;;;;;;;;5072877;28;19908;-71
2022/04/05 00:32:14;;;;;;;;;;;;;;;;;;5060239;28;19920;-68
2022/04/05 00:34:40;;;;;;;;;;;;;;;;;;5061495;28;19909;-70
2022/04/05 00:37:06;;;;;;;;;;;;;;;;;;5054636;28;19908;-69
2022/04/05 00:39:32;;;;;;;;;;;;;;;;;;5064234;28;19919;-69
2022/04/05 00:41:58;;;;;;;;;;;;;;;;;;5060777;28;19909;-69
2022/04/05 00:44:24;;;;;;;;;;;;;;;;;;5070459;28;20241;-69
2022/04/05 00:46:50;;;;;;;;;;;;;;;;;;5057707;28;20003;-70
2022/04/05 00:49:16;;;;;;;;;;;;;;;;;;5056178;28;19908;-70
2022/04/05 00:51:42;;;;;;;;;;;;;;;;;;5060978;28;19920;-70
2022/04/05 00:54:08;;;;;;;;;;;;;;;;;;5073282;28;20265;-71
2022/04/05 00:56:34;;;;;;;;;;;;;;;;;;5069502;28;20003;-69
2022/04/05 00:59:00;;;;;;;;;;;;;;;;;;5069023;28;19912;-69
2022/04/05 01:01:25;;;;;;;;;;;;;;;;;;5070042;28;19912;-69
2022/04/05 01:03:53;;;;;;;;;;;;;;;;;;5067596;28;19904;-68
2022/04/05 01:06:20;;;;;;;;;;;;;;;;;;5036065;28;20339;-68
2022/04/05 01:08:46;;;;;;;;;;;;;;;;;;5052334;28;19904;-68
2022/04/05 01:11:12;;;;;;;;;;;;;;;;;;5054225;28;19920;-69
2022/04/05 01:13:38;;;;;;;;;;;;;;;;;;5055689;28;19912;-67
2022/04/05 01:16:04;;;;;;;;;;;;;;;;;;5072414;28;20359;-69
2022/04/05 01:18:30;;;;;;;;;;;;;;;;;;5063733;28;19909;-70
2022/04/05 01:20:56;;;;;;;;;;;;;;;;;;5058251;28;19944;-69
2022/04/05 01:23:22;;;;;;;;;;;;;;;;;;5055589;28;20349;-69
2022/04/05 01:25:48;;;;;;;;;;;;;;;;;;5072351;28;19908;-67
2022/04/05 01:28:14;;;;;;;;;;;;;;;;;;5063481;28;20235;-66
2022/04/05 01:30:40;;;;;;;;;;;;;;;;;;5076563;28;19912;-68
2022/04/05 01:33:07;;;;;;;;;;;;;;;;;;5069475;28;19909;-69
2022/04/05 01:35:33;;;;;;;;;;;;;;;;;;5063918;28;19970;-69
2022/04/05 01:37:59;;;;;;;;;;;;;;;;;;5072632;28;20244;-67
2022/04/05 01:40:25;;;;;;;;;;;;;;;;;;5070851;28;20046;-67
2022/04/05 01:42:51;;;;;;;;;;;;;;;;;;5057913;28;19923;-68
2022/04/05 01:45:17;;;;;;;;;;;;;;;;;;5071462;28;19908;-70
2022/04/05 01:47:42;;;;;;;;;;;;;;;;;;5068413;28;20349;-69
2022/04/05 01:50:08;;;;;;;;;;;;;;;;;;5051554;28;19905;-69
2022/04/05 01:52:34;;;;;;;;;;;;;;;;;;5053655;28;19924;-68
2022/04/05 01:55:00;;;;;;;;;;;;;;;;;;5060126;28;19947;-68
2022/04/05 01:57:26;;;;;;;;;;;;;;;;;;5071919;28;19905;-69
2022/04/05 01:59:52;;;;;;;;;;;;;;;;;;5071376;28;20003;-67
2022/04/05 02:02:18;;;;;;;;;;;;;;;;;;5067111;28;19917;-67
2022/04/05 02:04:44;;;;;;;;;;;;;;;;;;5073753;28;20273;-68
2022/04/05 02:07:10;;;;;;;;;;;;;;;;;;5066220;28;19909;-67
2022/04/05 02:09:36;;;;;;;;;;;;;;;;;;5074676;28;19904;-67
2022/04/05 02:12:02;;;;;;;;;;;;;;;;;;5068528;28;19908;-67
2022/04/05 02:14:28;;;;;;;;;;;;;;;;;;5059128;28;19905;-66
2022/04/05 02:16:54;;;;;;;;;;;;;;;;;;5075066;28;19911;-69
2022/04/05 02:19:20;;;;;;;;;;;;;;;;;;5067027;28;19904;-68
2022/04/05 02:21:46;;;;;;;;;;;;;;;;;;5070478;28;19913;-70
2022/04/05 02:24:12;;;;;;;;;;;;;;;;;;5080344;28;19909;-70
2022/04/05 02:26:39;;;;;;;;;;;;;;;;;;5075575;28;19905;-70
2022/04/05 02:29:06;;;;;;;;;;;;;;;;;;5075143;28;20315;-69
2022/04/05 02:31:32;;;;;;;;;;;;;;;;;;5071483;28;19909;-70
2022/04/05 02:33:58;;;;;;;;;;;;;;;;;;5063701;28;19904;-68
2022/04/05 02:36:24;;;;;;;;;;;;;;;;;;5055469;28;19911;-67
2022/04/05 02:38:50;;;;;;;;;;;;;;;;;;5055027;28;19912;-66
2022/04/05 02:41:16;;;;;;;;;;;;;;;;;;5056489;28;19915;-66
2022/04/05 02:43:42;;;;;;;;;;;;;;;;;;5066780;28;19912;-65
2022/04/05 02:46:11;;;;;;;;;;;;;;;;;;5075313;28;19973;-66
2022/04/05 02:48:42;;;;;;;;;;;;;;;;;;5074847;28;19904;-67
2022/04/05 02:51:09;;;;;;;;;;;;;;;;;;5066458;28;19908;-71
2022/04/05 02:53:35;;;;;;;;;;;;;;;;;;5063774;28;19908;-70
2022/04/05 02:56:01;;;;;;;;;;;;;;;;;;5074693;28;19905;-69
2022/04/05 02:58:27;;;;;;;;;;;;;;;;;;5072149;28;20403;-70
2022/04/05 03:00:53;;;;;;;;;;;;;;;;;;5071925;28;19905;-65
2022/04/05 03:03:19;;;;;;;;;;;;;;;;;;5064775;28;19919;-65
2022/04/05 03:05:45;;;;;;;;;;;;;;;;;;5056137;28;19908;-70
2022/04/05 03:08:11;;;;;;;;;;;;;;;;;;5063046;28;19931;-68
2022/04/05 03:10:37;;;;;;;;;;;;;;;;;;5058582;28;19989;-67
2022/04/05 03:13:04;;;;;;;;;;;;;;;;;;5066271;28;20002;-68
2022/04/05 03:15:29;;;;;;;;;;;;;;;;;;5071666;28;19970;-71
2022/04/05 03:17:55;;;;;;;;;;;;;;;;;;5060760;28;20377;-67
2022/04/05 03:20:21;;;;;;;;;;;;;;;;;;5055501;28;19951;-69
2022/04/05 03:22:47;;;;;;;;;;;;;;;;;;5054403;28;19908;-68
2022/04/05 03:25:13;;;;;;;;;;;;;;;;;;5060252;28;20361;-66
2022/04/05 03:27:40;;;;;;;;;;;;;;;;;;5059242;28;19934;-63
2022/04/05 03:30:12;;;;;;;;;;;;;;;;;;5074085;28;19904;-65
2022/04/05 03:32:38;;;;;;;;;;;;;;;;;;5074664;28;19904;-65
2022/04/05 03:35:04;;;;;;;;;;;;;;;;;;5074392;28;19912;-70
2022/04/05 03:37:30;;;;;;;;;;;;;;;;;;5062910;28;19986;-68
2022/04/05 03:39:56;;;;;;;;;;;;;;;;;;5053786;28;19915;-69
2022/04/05 03:42:22;;;;;;;;;;;;;;;;;;5055888;28;19909;-66
2022/04/05 03:44:48;;;;;;;;;;;;;;;;;;5061230;28;19915;-69
2022/04/05 03:47:14;;;;;;;;;;;;;;;;;;5061082;28;20275;-70
2022/04/05 03:49:41;;;;;;;;;;;;;;;;;;5056681;28;19909;-69
2022/04/05 03:52:07;;;;;;;;;;;;;;;;;;5073715;28;19917;-68
2022/04/05 03:54:32;;;;;;;;;;;;;;;;;;5074011;28;20372;-67
2022/04/05 03:56:58;;;;;;;;;;;;;;;;;;5062102;28;19919;-67
2022/04/05 03:59:24;;;;;;;;;;;;;;;;;;5072393;28;19974;-70
2022/04/05 04:01:50;;;;;;;;;;;;;;;;;;5058567;28;20313;-70
2022/04/05 04:04:16;;;;;;;;;;;;;;;;;;5057796;28;19954;-69
2022/04/05 04:06:42;;;;;;;;;;;;;;;;;;5064068;28;20022;-69
2022/04/05 04:09:08;;;;;;;;;;;;;;;;;;5064863;28;19916;-66
2022/04/05 04:11:34;;;;;;;;;;;;;;;;;;5073676;28;19915;-67
2022/04/05 04:14:00;;;;;;;;;;;;;;;;;;5073722;28;19904;-68
2022/04/05 04:16:26;;;;;;;;;;;;;;;;;;5065329;28;19904;-68
2022/04/05 04:18:52;;;;;;;;;;;;;;;;;;5060896;28;20419;-68
2022/04/05 04:21:18;;;;;;;;;;;;;;;;;;5060049;28;19991;-68
2022/04/05 04:23:44;;;;;;;;;;;;;;;;;;5071857;28;19934;-67
2022/04/05 04:26:10;;;;;;;;;;;;;;;;;;5065042;28;19905;-67
2022/04/05 04:28:36;;;;;;;;;;;;;;;;;;5060368;28;21315;-66
2022/04/05 04:31:02;;;;;;;;;;;;;;;;;;5053121;28;19943;-70
2022/04/05 04:33:28;;;;;;;;;;;;;;;;;;5052296;28;19909;-67
2022/04/05 04:35:54;;;;;;;;;;;;;;;;;;5053606;28;20416;-65
2022/04/05 04:38:20;;;;;;;;;;;;;;;;;;5059493;28;19909;-67
2022/04/05 04:40:46;;;;;;;;;;;;;;;;;;5061618;28;19966;-66
2022/04/05 04:43:11;;;;;;;;;;;;;;;;;;5057562;28;19916;-68
2022/04/05 04:45:37;;;;;;;;;;;;;;;;;;5054060;28;19912;-66
2022/04/05 04:48:03;;;;;;;;;;;;;;;;;;5058399;28;19951;-71
2022/04/05 04:50:29;;;;;;;;;;;;;;;;;;5064337;28;19933;-69
2022/04/05 04:52:55;;;;;;;;;;;;;;;;;;5086039;28;19913;-70
2022/04/05 04:55:22;;;;;;;;;;;;;;;;;;5067874;28;20410;-70
2022/04/05 04:57:48;;;;;;;;;;;;;;;;;;5065562;28;19908;-72
2022/04/05 05:00:15;;;;;;;;;;;;;;;;;;5066017;28;19913;-69
2022/04/05 05:02:41;;;;;;;;;;;;;;;;;;5058757;28;19909;-73
2022/04/05 05:05:08;;;;;;;;;;;;;;;;;;5057262;28;19909;-70
2022/04/05 05:07:33;;;;;;;;;;;;;;;;;;5054316;28;20019;-72
2022/04/05 05:09:59;;;;;;;;;;;;;;;;;;5055351;28;20320;-70
2022/04/05 05:12:25;;;;;;;;;;;;;;;;;;5057956;28;19915;-65
2022/04/05 05:14:51;;;;;;;;;;;;;;;;;;5052432;28;19943;-68
2022/04/05 05:17:17;;;;;;;;;;;;;;;;;;5060507;28;19905;-66
2022/04/05 05:19:43;;;;;;;;;;;;;;;;;;5061246;28;19915;-66
2022/04/05 05:22:09;;;;;;;;;;;;;;;;;;5055419;28;19974;-70
2022/04/05 05:24:36;;;;;;;;;;;;;;;;;;5052304;28;20363;-68
2022/04/05 05:27:01;;;;;;;;;;;;;;;;;;5052241;28;19904;-67
2022/04/05 05:29:27;;;;;;;;;;;;;;;;;;5064650;28;19908;-70
2022/04/05 05:31:53;;;;;;;;;;;;;;;;;;5072270;28;20273;-70
2022/04/05 05:34:22;;;;;;;;;;;;;;;;;;5072142;28;20375;-70
2022/04/05 05:36:48;;;;;;;;;;;;;;;;;;5070834;28;19991;-68
2022/04/05 05:39:14;;;;;;;;;;;;;;;;;;5070859;28;20074;-71
2022/04/05 05:41:40;;;;;;;;;;;;;;;;;;5070992;28;19916;-69
2022/04/05 05:44:06;;;;;;;;;;;;;;;;;;5071972;28;19912;-67
2022/04/05 05:46:32;;;;;;;;;;;;;;;;;;5071708;28;20520;-70
2022/04/05 05:48:58;;;;;;;;;;;;;;;;;;5071602;28;19944;-70
2022/04/05 05:51:24;;;;;;;;;;;;;;;;;;5071835;28;20291;-67
2022/04/05 05:53:49;;;;;;;;;;;;;;;;;;5071907;28;19905;-70
2022/04/05 05:56:16;;;;;;;;;;;;;;;;;;5071943;28;19912;-68
2022/04/05 05:58:41;;;;;;;;;;;;;;;;;;5071527;28;19905;-69
2022/04/05 06:01:07;;;;;;;;;;;;;;;;;;5071650;28;20371;-70
2022/04/05 06:03:33;;;;;;;;;;;;;;;;;;5071813;28;19908;-72
2022/04/05 06:05:59;;;;;;;;;;;;;;;;;;5071859;28;20230;-68
2022/04/05 06:08:25;;;;;;;;;;;;;;;;;;5071711;28;20402;-69
2022/04/05 06:10:51;;;;;;;;;;;;;;;;;;5073103;28;19904;-70
2022/04/05 06:13:17;;;;;;;;;;;;;;;;;;5071888;28;19912;-71
2022/04/05 06:15:43;;;;;;;;;;;;;;;;;;5071759;28;19958;-72
2022/04/05 06:18:09;;;;;;;;;;;;;;;;;;5071782;28;19905;-66
2022/04/05 06:20:35;;;;;;;;;;;;;;;;;;5071147;28;19912;-66
2022/04/05 06:23:01;;;;;;;;;;;;;;;;;;5071626;28;20335;-67
2022/04/05 06:25:29;;;;;;;;;;;;;;;;;;5071739;28;19995;-64
2022/04/05 06:27:55;;;;;;;;;;;;;;;;;;5071692;28;19904;-73
2022/04/05 06:30:21;;;;;;;;;;;;;;;;;;5071143;28;19996;-69
2022/04/05 06:32:47;;;;;;;;;;;;;;;;;;5071544;28;20349;-66
2022/04/05 06:35:13;;;;;;;;;;;;;;;;;;5071553;28;19904;-71
2022/04/05 06:37:41;;;;;;;;;;;;;;;;;;5071452;28;20319;-69
2022/04/05 06:40:07;;;;;;;;;;;;;;;;;;5071127;28;19939;-67
2022/04/05 06:42:33;;;;;;;;;;;;;;;;;;5071463;28;19924;-66
2022/04/05 06:44:58;;;;;;;;;;;;;;;;;;5071462;28;20265;-66
2022/04/05 06:47:24;;;;;;;;;;;;;;;;;;5065754;28;20262;-68
2022/04/05 06:49:50;;;;;;;;;;;;;;;;;;5068796;28;19904;-69
2022/04/05 06:52:16;;;;;;;;;;;;;;;;;;5072257;28;19975;-70
2022/04/05 06:54:42;;;;;;;;;;;;;;;;;;5071955;28;19905;-69
2022/04/05 06:57:09;;;;;;;;;;;;;;;;;;5072444;28;19961;-67
2022/04/05 06:59:35;;;;;;;;;;;;;;;;;;5071529;28;19915;-67
2022/04/05 07:02:01;;;;;;;;;;;;;;;;;;5073139;28;19916;-68
2022/04/05 07:04:29;;;;;;;;;;;;;;;;;;5072217;28;20269;-67
2022/04/05 07:06:55;;;;;;;;;;;;;;;;;;5073555;28;19912;-69
2022/04/05 07:09:22;;;;;;;;;;;;;;;;;;5071022;28;20494;-69
2022/04/05 07:11:48;;;;;;;;;;;;;;;;;;5071995;28;19910;-68
2022/04/05 07:14:14;;;;;;;;;;;;;;;;;;5072248;28;20003;-67
2022/04/05 07:16:40;;;;;;;;;;;;;;;;;;5070675;28;19906;-69
2022/04/05 07:19:06;;;;;;;;;;;;;;;;;;5071582;28;19908;-69
2022/04/05 07:21:32;;;;;;;;;;;;;;;;;;5071815;28;19958;-65
2022/04/05 07:23:58;;;;;;;;;;;;;;;;;;5070283;28;20579;-67
2022/04/05 07:26:24;;;;;;;;;;;;;;;;;;5071410;28;19939;-67
2022/04/05 07:28:49;;;;;;;;;;;;;;;;;;5071763;28;20015;-67
2022/04/05 07:31:15;;;;;;;;;;;;;;;;;;5071169;28;20356;-68
2022/04/05 07:33:41;;;;;;;;;;;;;;;;;;5070984;28;19933;-66
2022/04/05 07:36:07;;;;;;;;;;;;;;;;;;5072023;28;20381;-66
2022/04/05 07:38:33;;;;;;;;;;;;;;;;;;5070838;28;19912;-67
2022/04/05 07:40:59;;;;;;;;;;;;;;;;;;5070886;28;19912;-66
2022/04/05 07:43:25;;;;;;;;;;;;;;;;;;5071680;28;19915;-68
2022/04/05 07:45:51;;;;;;;;;;;;;;;;;;5070850;28;19940;-65
2022/04/05 07:48:17;;;;;;;;;;;;;;;;;;5069974;28;19957;-68
2022/04/05 07:50:43;;;;;;;;;;;;;;;;;;5071007;28;19959;-67
2022/04/05 07:53:09;;;;;;;;;;;;;;;;;;5070830;28;19995;-63
2022/04/05 07:55:34;;;;;;;;;;;;;;;;;;5070931;28;19908;-67
2022/04/05 07:58:00;;;;;;;;;;;;;;;;;;5069899;28;19908;-68
2022/04/05 08:00:27;;;;;;;;;;;;;;;;;;5070334;28;19915;-66
2022/04/05 08:02:53;;;;;;;;;;;;;;;;;;5070063;28;19924;-68
2022/04/05 08:05:19;;;;;;;;;;;;;;;;;;5071569;28;19904;-65
2022/04/05 08:07:46;;;;;;;;;;;;;;;;;;5070842;28;19908;-67
2022/04/05 08:10:13;;;;;;;;;;;;;;;;;;5069978;28;20276;-64
2022/04/05 08:12:39;;;;;;;;;;;;;;;;;;5070823;28;19998;-67
2022/04/05 08:15:05;;;;;;;;;;;;;;;;;;5072323;28;19900;-68
2022/04/05 08:17:31;;;;;;;;;;;;;;;;;;5070391;28;19904;-66
2022/04/05 08:19:56;;;;;;;;;;;;;;;;;;5070329;28;20375;-66
2022/04/05 08:22:22;;;;;;;;;;;;;;;;;;5070116;28;19917;-65
2022/04/05 08:24:48;;;;;;;;;;;;;;;;;;5070330;28;20335;-67
2022/04/05 08:27:14;;;;;;;;;;;;;;;;;;5070519;28;19908;-66
2022/04/05 08:29:41;;;;;;;;;;;;;;;;;;5070080;28;19912;-67
2022/04/05 08:32:07;;;;;;;;;;;;;;;;;;5071401;28;19908;-64
2022/04/05 08:34:33;;;;;;;;;;;;;;;;;;5069766;28;20003;-64
2022/04/05 08:36:59;;;;;;;;;;;;;;;;;;5070713;28;20007;-64
2022/04/05 08:39:27;;;;;;;;;;;;;;;;;;5069512;28;20445;-66
2022/04/05 08:41:54;;;;;;;;;;;;;;;;;;5069668;28;19947;-66
2022/04/05 08:44:20;;;;;;;;;;;;;;;;;;5070363;28;19957;-65
2022/04/05 08:46:46;;;;;;;;;;;;;;;;;;5069239;28;19908;-65
2022/04/05 08:49:12;;;;;;;;;;;;;;;;;;5069509;28;19919;-63
2022/04/05 08:51:38;;;;;;;;;;;;;;;;;;5069994;28;19913;-64
2022/04/05 08:54:04;;;;;;;;;;;;;;;;;;5069753;28;19908;-66
2022/04/05 08:56:30;;;;;;;;;;;;;;;;;;5069889;28;20284;-66
2022/04/05 08:58:56;;;;;;;;;;;;;;;;;;5069883;28;20471;-64
2022/04/05 09:01:22;;;;;;;;;;;;;;;;;;5069816;28;20345;-67
2022/04/05 09:03:48;;;;;;;;;;;;;;;;;;5069643;28;19908;-64
2022/04/05 09:06:14;;;;;;;;;;;;;;;;;;5071564;28;19999;-63
2022/04/05 09:08:39;;;;;;;;;;;;;;;;;;5069385;28;19904;-66
2022/04/05 09:11:05;;;;;;;;;;;;;;;;;;5069171;28;19915;-67
2022/04/05 09:13:31;;;;;;;;;;;;;;;;;;5069961;28;19912;-69
2022/04/05 09:15:58;;;;;;;;;;;;;;;;;;5069729;28;20340;-66
2022/04/05 09:18:24;;;;;;;;;;;;;;;;;;5069376;28;19995;-65
2022/04/05 09:20:51;;;;;;;;;;;;;;;;;;5069455;28;20016;-67
2022/04/05 09:23:17;;;;;;;;;;;;;;;;;;5069396;28;19912;-66
2022/04/05 09:25:45;;;;;;;;;;;;;;;;;;5069464;28;19915;-68
2022/04/05 09:28:11;;;;;;;;;;;;;;;;;;5068415;28;19904;-67
2022/04/05 09:30:37;;;;;;;;;;;;;;;;;;5069423;28;19977;-68
2022/04/05 09:33:04;;;;;;;;;;;;;;;;;;5069410;28;19935;-65
2022/04/05 09:35:30;;;;;;;;;;;;;;;;;;5068926;28;19979;-66
2022/04/05 09:37:55;;;;;;;;;;;;;;;;;;5069791;28;20002;-69
2022/04/05 09:40:21;;;;;;;;;;;;;;;;;;5069033;28;19915;-67
2022/04/05 09:42:47;;;;;;;;;;;;;;;;;;5068982;28;19912;-69
2022/04/05 09:45:13;;;;;;;;;;;;;;;;;;5069805;28;20391;-68
2022/04/05 09:47:39;;;;;;;;;;;;;;;;;;5068843;28;19958;-70
2022/04/05 09:50:05;;;;;;;;;;;;;;;;;;5068695;28;20284;-68
2022/04/05 09:52:31;;;;;;;;;;;;;;;;;;5069405;28;19912;-70
2022/04/05 09:54:57;;;;;;;;;;;;;;;;;;5068938;28;19944;-70
2022/04/05 09:57:23;;;;;;;;;;;;;;;;;;5068565;28;19909;-67
2022/04/05 09:59:48;;;;;;;;;;;;;;;;;;5068852;28;19954;-71
2022/04/05 10:02:14;;;;;;;;;;;;;;;;;;5069986;28;19912;-69
2022/04/05 10:04:40;;;;;;;;;;;;;;;;;;5064359;28;20361;-68
2022/04/05 10:07:06;;;;;;;;;;;;;;;;;;5049261;28;20428;-68
2022/04/05 10:09:32;;;;;;;;;;;;;;;;;;5048290;28;19909;-68
2022/04/05 10:11:59;;;;;;;;;;;;;;;;;;5048240;28;20274;-68
2022/04/05 10:14:26;;;;;;;;;;;;;;;;;;5049319;28;19947;-71
2022/04/05 10:16:52;;;;;;;;;;;;;;;;;;5049001;28;19911;-69
2022/04/05 10:19:17;;;;;;;;;;;;;;;;;;5048386;28;19908;-70
2022/04/05 10:21:43;;;;;;;;;;;;;;;;;;5049226;28;19951;-69
2022/04/05 10:24:09;;;;;;;;;;;;;;;;;;5048327;28;19909;-68
2022/04/05 10:26:35;;;;;;;;;;;;;;;;;;5053228;28;20012;-70
2022/04/05 10:29:01;;;;;;;;;;;;;;;;;;5052775;28;19911;-69
2022/04/05 10:31:27;;;;;;;;;;;;;;;;;;5052426;28;20366;-66
2022/04/05 10:33:53;;;;;;;;;;;;;;;;;;5052543;28;19913;-66
2022/04/05 10:36:19;;;;;;;;;;;;;;;;;;5052864;28;20277;-69
2022/04/05 10:38:45;;;;;;;;;;;;;;;;;;5052104;28;19909;-71
2022/04/05 10:41:11;;;;;;;;;;;;;;;;;;5051776;28;20278;-68
2022/04/05 10:43:40;;;;;;;;;;;;;;;;;;5052139;28;19912;-71
2022/04/05 10:46:06;;;;;;;;;;;;;;;;;;5052608;28;20420;-70
2022/04/05 10:48:32;;;;;;;;;;;;;;;;;;5051509;28;19999;-67
2022/04/05 10:50:58;;;;;;;;;;;;;;;;;;5052204;28;19911;-67
2022/04/05 10:53:24;;;;;;;;;;;;;;;;;;5053008;28;19916;-69
2022/04/05 10:55:50;;;;;;;;;;;;;;;;;;5052189;28;19952;-68
2022/04/05 10:58:16;;;;;;;;;;;;;;;;;;5052491;28;19983;-67
2022/04/05 11:00:42;;;;;;;;;;;;;;;;;;5051785;28;19908;-66
2022/04/05 11:03:11;;;;;;;;;;;;;;;;;;5051846;28;20359;-67
2022/04/05 11:05:41;;;;;;;;;;;;;;;;;;5051814;28;19915;-67
2022/04/05 11:08:07;;;;;;;;;;;;;;;;;;5052579;28;19948;-67
2022/04/05 11:10:33;;;;;;;;;;;;;;;;;;5052574;28;20408;-66
2022/04/05 11:12:59;;;;;;;;;;;;;;;;;;5051272;28;19905;-66
2022/04/05 11:15:25;;;;;;;;;;;;;;;;;;5052374;28;19905;-69
2022/04/05 11:17:51;;;;;;;;;;;;;;;;;;5051636;28;19999;-67
2022/04/05 11:20:17;;;;;;;;;;;;;;;;;;5051132;28;19913;-66
2022/04/05 11:22:43;;;;;;;;;;;;;;;;;;5051522;28;19912;-68
2022/04/05 11:25:09;;;;;;;;;;;;;;;;;;5052686;28;19998;-67
2022/04/05 11:27:35;;;;;;;;;;;;;;;;;;5055848;28;20327;-67
2022/04/05 11:30:01;;;;;;;;;;;;;;;;;;5051838;28;19909;-68
2022/04/05 11:32:27;;;;;;;;;;;;;;;;;;5051673;28;19915;-68
2022/04/05 11:34:53;;;;;;;;;;;;;;;;;;5052495;28;19909;-68
2022/04/05 11:37:19;;;;;;;;;;;;;;;;;;5070129;28;19995;-68
2022/04/05 11:39:46;;;;;;;;;;;;;;;;;;5067340;28;20349;-70
2022/04/05 11:42:12;;;;;;;;;;;;;;;;;;5053747;28;19908;-70
2022/04/05 11:44:38;;;;;;;;;;;;;;;;;;5058324;28;20003;-68
2022/04/05 11:47:04;;;;;;;;;;;;;;;;;;5074307;28;19904;-68
2022/04/05 11:49:30;;;;;;;;;;;;;;;;;;5070863;28;19908;-68
2022/04/05 11:51:56;;;;;;;;;;;;;;;;;;5054009;28;20265;-68
2022/04/05 11:54:24;;;;;;;;;;;;;;;;;;5054106;28;20349;-71
2022/04/05 11:56:50;;;;;;;;;;;;;;;;;;5054150;28;19948;-69
2022/04/05 11:59:16;;;;;;;;;;;;;;;;;;5053671;28;20349;-70
2022/04/05 12:01:42;;;;;;;;;;;;;;;;;;5069644;28;19923;-71
2022/04/05 12:04:08;;;;;;;;;;;;;;;;;;5053800;28;19908;-68
2022/04/05 12:06:34;;;;;;;;;;;;;;;;;;5053753;28;19919;-71
2022/04/05 12:09:00;;;;;;;;;;;;;;;;;;5053376;28;19912;-69
2022/04/05 12:11:26;;;;;;;;;;;;;;;;;;5053539;28;20273;-68
2022/04/05 12:13:52;;;;;;;;;;;;;;;;;;5053671;28;19936;-68
2022/04/05 12:16:18;;;;;;;;;;;;;;;;;;5053678;28;20384;-71
2022/04/05 12:18:44;;;;;;;;;;;;;;;;;;5055778;28;19905;-68
2022/04/05 12:21:10;;;;;;;;;;;;;;;;;;5061364;28;20364;-70
2022/04/05 12:23:36;;;;;;;;;;;;;;;;;;5051760;28;19919;-68
2022/04/05 12:26:02;;;;;;;;;;;;;;;;;;5052675;28;20358;-68
2022/04/05 12:28:28;;;;;;;;;;;;;;;;;;5051111;28;19916;-71
2022/04/05 12:30:54;;;;;;;;;;;;;;;;;;5051319;28;19928;-71
2022/04/05 12:33:20;;;;;;;;;;;;;;;;;;5056652;28;19908;-68
2022/04/05 12:35:46;;;;;;;;;;;;;;;;;;5069345;28;20321;-69
2022/04/05 12:38:12;;;;;;;;;;;;;;;;;;5052595;28;19958;-70
2022/04/05 12:40:38;;;;;;;;;;;;;;;;;;5052750;28;19904;-68
2022/04/05 12:43:03;;;;;;;;;;;;;;;;;;5053139;28;19954;-71
2022/04/05 12:45:30;;;;;;;;;;;;;;;;;;5053247;28;19991;-70
2022/04/05 12:47:56;;;;;;;;;;;;;;;;;;5053002;28;19905;-69
2022/04/05 12:50:22;;;;;;;;;;;;;;;;;;5052781;28;19904;-70
2022/04/05 12:52:47;;;;;;;;;;;;;;;;;;5053244;28;19919;-71
2022/04/05 12:55:17;;;;;;;;;;;;;;;;;;5054265;28;19944;-69
2022/04/05 12:57:43;;;;;;;;;;;;;;;;;;5058084;28;19909;-71
2022/04/05 13:00:09;;;;;;;;;;;;;;;;;;5063203;28;19908;-70
2022/04/05 13:02:35;;;;;;;;;;;;;;;;;;5070596;28;19913;-69
2022/04/05 13:06:19;;;;;;;;;;;;;;;;;;5059253;28;20269;-70
2022/04/05 13:07:47;;;;;;;;;;;;;;;;;;5065369;28;19908;-68
2022/04/05 13:10:13;;;;;;;;;;;;;;;;;;5065495;28;20049;-70
2022/04/05 13:12:38;;;;;;;;;;;;;;;;;;5063870;28;19988;-70
2022/04/05 13:15:04;;;;;;;;;;;;;;;;;;5065824;28;19904;-69
2022/04/05 13:17:30;;;;;;;;;;;;;;;;;;5058541;28;20007;-69
2022/04/05 13:19:56;;;;;;;;;;;;;;;;;;5068725;28;19912;-72
2022/04/05 13:22:22;;;;;;;;;;;;;;;;;;5055128;28;19919;-75
2022/04/05 13:24:48;;;;;;;;;;;;;;;;;;5079963;28;19909;-73
2022/04/05 13:27:14;;;;;;;;;;;;;;;;;;5052289;28;20392;-74
2022/04/05 13:29:42;;;;;;;;;;;;;;;;;;5064004;28;19930;-73
2022/04/05 13:32:08;;;;;;;;;;;;;;;;;;5053535;28;19912;-71
2022/04/05 13:34:34;;;;;;;;;;;;;;;;;;5052210;28;19923;-74
2022/04/05 13:37:00;;;;;;;;;;;;;;;;;;5052228;28;19909;-70
2022/04/05 13:39:27;;;;;;;;;;;;;;;;;;5053369;28;19915;-71
2022/04/05 13:41:53;;;;;;;;;;;;;;;;;;5057744;28;19940;-70
2022/04/05 13:44:23;;;;;;;;;;;;;;;;;;5062757;28;19947;-72
2022/04/05 13:46:49;;;;;;;;;;;;;;;;;;5073861;28;19909;-76
2022/04/05 13:49:16;;;;;;;;;;;;;;;;;;5053383;28;19915;-71
2022/04/05 13:51:42;;;;;;;;;;;;;;;;;;5053035;28;19913;-73
2022/04/05 13:54:10;;;;;;;;;;;;;;;;;;5053857;28;19951;-75
2022/04/05 13:56:36;;;;;;;;;;;;;;;;;;5052381;28;19905;-76
2022/04/05 13:59:01;;;;;;;;;;;;;;;;;;5058523;28;20281;-72
2022/04/05 14:01:27;;;;;;;;;;;;;;;;;;5063257;28;20413;-74
2022/04/05 14:03:53;;;;;;;;;;;;;;;;;;5051528;28;20373;-73
2022/04/05 14:06:20;;;;;;;;;;;;;;;;;;5051493;28;19905;-75
2022/04/05 14:08:46;;;;;;;;;;;;;;;;;;5052709;28;20300;-73
2022/04/05 14:11:12;;;;;;;;;;;;;;;;;;5051637;28;20000;-71
2022/04/05 14:13:38;;;;;;;;;;;;;;;;;;5051805;28;19905;-72
2022/04/05 14:16:04;;;;;;;;;;;;;;;;;;5051505;28;20415;-71
2022/04/05 14:18:30;;;;;;;;;;;;;;;;;;5052012;28;19931;-71
2022/04/05 14:20:56;;;;;;;;;;;;;;;;;;5051649;28;19911;-71
2022/04/05 14:23:22;;;;;;;;;;;;;;;;;;5053077;28;19909;-74
2022/04/05 14:25:48;;;;;;;;;;;;;;;;;;5063101;28;20373;-73
2022/04/05 14:28:14;;;;;;;;;;;;;;;;;;5071830;28;19904;-75
2022/04/05 14:30:40;;;;;;;;;;;;;;;;;;5071377;28;20260;-68
2022/04/05 14:33:06;;;;;;;;;;;;;;;;;;5071738;28;20333;-75
2022/04/05 14:35:32;;;;;;;;;;;;;;;;;;5062902;28;19905;-74
2022/04/05 14:37:58;;;;;;;;;;;;;;;;;;5051515;28;19905;-71
2022/04/05 14:40:24;;;;;;;;;;;;;;;;;;5051228;28;20242;-70
2022/04/05 14:42:51;;;;;;;;;;;;;;;;;;5052788;28;19913;-74
2022/04/05 14:45:17;;;;;;;;;;;;;;;;;;5051537;28;19904;-72
2022/04/05 14:47:43;;;;;;;;;;;;;;;;;;5055946;28;19932;-74
2022/04/05 14:50:09;;;;;;;;;;;;;;;;;;5064700;28;19904;-74
2022/04/05 14:52:35;;;;;;;;;;;;;;;;;;5071096;28;20379;-75
2022/04/05 14:55:01;;;;;;;;;;;;;;;;;;5071477;28;19904;-70
2022/04/05 14:57:27;;;;;;;;;;;;;;;;;;5070917;28;19911;-70
2022/04/05 14:59:53;;;;;;;;;;;;;;;;;;5070873;28;19908;-70
2022/04/05 15:02:19;;;;;;;;;;;;;;;;;;5066251;28;19913;-68
2022/04/05 15:04:45;;;;;;;;;;;;;;;;;;5064792;28;19909;-69
2022/04/05 15:07:11;;;;;;;;;;;;;;;;;;5066992;28;20307;-72
2022/04/05 15:09:37;;;;;;;;;;;;;;;;;;5057427;28;19909;-72
2022/04/05 15:12:03;;;;;;;;;;;;;;;;;;5070888;28;19908;-75
2022/04/05 15:14:29;;;;;;;;;;;;;;;;;;5057760;28;20368;-73
2022/04/05 15:16:55;;;;;;;;;;;;;;;;;;5059861;28;19935;-75
2022/04/05 15:19:24;;;;;;;;;;;;;;;;;;5075894;28;19910;-77
2022/04/05 15:21:50;;;;;;;;;;;;;;;;;;5072278;28;19904;-73
2022/04/05 15:24:15;;;;;;;;;;;;;;;;;;5054723;28;19915;-74
2022/04/05 15:26:42;;;;;;;;;;;;;;;;;;5061496;28;19908;-71
2022/04/05 15:29:07;;;;;;;;;;;;;;;;;;5057273;28;19908;-71
2022/04/05 15:31:33;;;;;;;;;;;;;;;;;;5059518;28;20590;-74
2022/04/05 15:33:59;;;;;;;;;;;;;;;;;;5058057;28;19950;-71
2022/04/05 15:36:25;;;;;;;;;;;;;;;;;;5055030;28;19913;-73
2022/04/05 15:38:52;;;;;;;;;;;;;;;;;;5054589;28;20247;-71
2022/04/05 15:41:18;;;;;;;;;;;;;;;;;;5070310;28;19908;-72
2022/04/05 15:43:43;;;;;;;;;;;;;;;;;;5075414;28;19935;-74
2022/04/05 15:46:09;;;;;;;;;;;;;;;;;;5074501;28;19905;-72
2022/04/05 15:48:35;;;;;;;;;;;;;;;;;;5073598;28;19904;-75
2022/04/05 15:51:02;;;;;;;;;;;;;;;;;;5071444;28;19915;-74
2022/04/05 15:53:28;;;;;;;;;;;;;;;;;;5073949;28;19908;-74
2022/04/05 15:55:53;;;;;;;;;;;;;;;;;;5072934;28;20296;-74
2022/04/05 15:58:19;;;;;;;;;;;;;;;;;;5072856;28;19904;-74
2022/04/05 16:00:45;;;;;;;;;;;;;;;;;;5073778;28;19904;-74
2022/04/05 16:03:11;;;;;;;;;;;;;;;;;;5073903;28;19908;-74
2022/04/05 16:05:37;;;;;;;;;;;;;;;;;;5074048;28;20004;-74
2022/04/05 16:08:03;;;;;;;;;;;;;;;;;;5073721;28;19909;-72
2022/04/05 16:10:29;;;;;;;;;;;;;;;;;;5073486;28;19904;-73
2022/04/05 16:12:55;;;;;;;;;;;;;;;;;;5074132;28;19908;-72
2022/04/05 16:15:21;;;;;;;;;;;;;;;;;;5074868;28;19951;-71
2022/04/05 16:17:47;;;;;;;;;;;;;;;;;;5071621;28;19991;-69
2022/04/05 16:20:14;;;;;;;;;;;;;;;;;;5071107;28;20487;-68
2022/04/05 16:22:39;;;;;;;;;;;;;;;;;;5070776;28;19956;-71
2022/04/05 16:25:05;;;;;;;;;;;;;;;;;;5072992;28;19995;-69
2022/04/05 16:27:31;;;;;;;;;;;;;;;;;;5072840;28;20406;-72
2022/04/05 16:29:57;;;;;;;;;;;;;;;;;;5072095;28;19904;-73
2022/04/05 16:32:23;;;;;;;;;;;;;;;;;;5072421;28;19904;-71
2022/04/05 16:34:49;;;;;;;;;;;;;;;;;;5073398;28;19905;-72
2022/04/05 16:37:15;;;;;;;;;;;;;;;;;;5074529;28;19951;-70